sensor_id;sensor_type;location;lat;lon;timestamp;temperature;humidity
3380;DHT22;1703;51.964;7.642;2022-11-20T00:00:19;0.90;99.90
3380;DHT22;1703;51.964;7.642;2022-11-20T00:02:45;0.90;99.90
3380;DHT22;1703;51.964;7.642;2022-11-20T00:05:14;0.90;99.90
3380;DHT22;1703;51.964;7.642;2022-11-20T00:07:40;0.90;99.90
3380;DHT22;1703;51.964;7.642;2022-11-20T00:10:07;0.90;99.90
3380;DHT22;1703;51.964;7.642;2022-11-20T00:12:34;0.90;99.90
3380;DHT22;1703;51.964;7.642;2022-11-20T00:15:01;0.90;99.90
3380;DHT22;1703;51.964;7.642;2022-11-20T00:17:28;0.90;99.90
3380;DHT22;1703;51.964;7.642;2022-11-20T00:19:55;0.90;99.90
3380;DHT22;1703;51.964;7.642;2022-11-20T00:22:23;0.80;99.90
3380;DHT22;1703;51.964;7.642;2022-11-20T00:24:49;0.80;99.90
3380;DHT22;1703;51.964;7.642;2022-11-20T00:27:16;0.80;99.90
3380;DHT22;1703;51.964;7.642;2022-11-20T00:29:43;0.70;99.90
3380;DHT22;1703;51.964;7.642;2022-11-20T00:32:10;0.70;99.90
3380;DHT22;1703;51.964;7.642;2022-11-20T00:34:36;0.70;99.90
3380;DHT22;1703;51.964;7.642;2022-11-20T00:37:03;0.80;99.90
3380;DHT22;1703;51.964;7.642;2022-11-20T00:39:31;0.80;99.90
3380;DHT22;1703;51.964;7.642;2022-11-20T00:41:58;0.80;99.90
3380;DHT22;1703;51.964;7.642;2022-11-20T00:44:25;0.70;99.90
3380;DHT22;1703;51.964;7.642;2022-11-20T00:46:52;0.60;99.90
3380;DHT22;1703;51.964;7.642;2022-11-20T00:49:18;0.50;99.90
3380;DHT22;1703;51.964;7.642;2022-11-20T00:51:45;0.50;99.90
3380;DHT22;1703;51.964;7.642;2022-11-20T00:54:12;0.50;99.90
3380;DHT22;1703;51.964;7.642;2022-11-20T00:56:40;0.40;99.90
3380;DHT22;1703;51.964;7.642;2022-11-20T00:59:09;0.40;99.90
3380;DHT22;1703;51.964;7.642;2022-11-20T01:01:36;0.40;99.90
3380;DHT22;1703;51.964;7.642;2022-11-20T01:04:04;0.40;99.90
3380;DHT22;1703;51.964;7.642;2022-11-20T01:06:32;0.40;99.90
3380;DHT22;1703;51.964;7.642;2022-11-20T01:09:01;0.50;99.90
3380;DHT22;1703;51.964;7.642;2022-11-20T01:11:31;0.50;99.90
3380;DHT22;1703;51.964;7.642;2022-11-20T01:14:00;0.60;99.90
3380;DHT22;1703;51.964;7.642;2022-11-20T01:16:29;0.50;99.90
3380;DHT22;1703;51.964;7.642;2022-11-20T01:18:58;0.40;99.90
3380;DHT22;1703;51.964;7.642;2022-11-20T01:21:27;0.40;99.90
3380;DHT22;1703;51.964;7.642;2022-11-20T01:23:54;0.50;99.90
3380;DHT22;1703;51.964;7.642;2022-11-20T01:26:23;0.60;99.90
3380;DHT22;1703;51.964;7.642;2022-11-20T01:28:50;0.70;99.90
3380;DHT22;1703;51.964;7.642;2022-11-20T01:31:20;0.60;99.90
3380;DHT22;1703;51.964;7.642;2022-11-20T01:33:49;0.60;99.90
3380;DHT22;1703;51.964;7.642;2022-11-20T01:36:17;0.60;99.90
3380;DHT22;1703;51.964;7.642;2022-11-20T01:38:44;0.70;99.90
3380;DHT22;1703;51.964;7.642;2022-11-20T01:41:13;0.60;99.90
3380;DHT22;1703;51.964;7.642;2022-11-20T01:44:02;0.70;99.90
3380;DHT22;1703;51.964;7.642;2022-11-20T01:46:31;0.50;99.90
3380;DHT22;1703;51.964;7.642;2022-11-20T01:49:02;0.50;99.90
3380;DHT22;1703;51.964;7.642;2022-11-20T01:51:32;0.50;99.90
3380;DHT22;1703;51.964;7.642;2022-11-20T01:54:02;0.50;99.90
3380;DHT22;1703;51.964;7.642;2022-11-20T01:56:33;0.50;99.90
3380;DHT22;1703;51.964;7.642;2022-11-20T01:59:04;0.50;99.90
3380;DHT22;1703;51.964;7.642;2022-11-20T02:01:33;0.50;99.90
3380;DHT22;1703;51.964;7.642;2022-11-20T02:04:00;0.50;99.90
3380;DHT22;1703;51.964;7.642;2022-11-20T02:06:30;0.40;99.90
3380;DHT22;1703;51.964;7.642;2022-11-20T02:08:58;0.30;99.90
3380;DHT22;1703;51.964;7.642;2022-11-20T02:11:24;0.30;99.90
3380;DHT22;1703;51.964;7.642;2022-11-20T02:13:51;0.40;99.90
3380;DHT22;1703;51.964;7.642;2022-11-20T02:16:21;0.30;99.90
3380;DHT22;1703;51.964;7.642;2022-11-20T02:18:51;0.20;99.90
3380;DHT22;1703;51.964;7.642;2022-11-20T02:21:25;0.20;99.90
3380;DHT22;1703;51.964;7.642;2022-11-20T02:24:15;0.20;99.90
3380;DHT22;1703;51.964;7.642;2022-11-20T02:26:47;0.20;99.90
3380;DHT22;1703;51.964;7.642;2022-11-20T02:29:17;0.10;99.90
3380;DHT22;1703;51.964;7.642;2022-11-20T02:31:46;0.00;99.90
3380;DHT22;1703;51.964;7.642;2022-11-20T02:34:13;0.10;99.90
3380;DHT22;1703;51.964;7.642;2022-11-20T02:36:41;0.00;99.90
3380;DHT22;1703;51.964;7.642;2022-11-20T02:39:10;0.10;99.90
3380;DHT22;1703;51.964;7.642;2022-11-20T02:41:39;0.20;99.90
3380;DHT22;1703;51.964;7.642;2022-11-20T02:44:06;0.20;99.90
3380;DHT22;1703;51.964;7.642;2022-11-20T02:46:33;0.20;99.90
3380;DHT22;1703;51.964;7.642;2022-11-20T02:49:01;0.10;99.90
3380;DHT22;1703;51.964;7.642;2022-11-20T02:51:28;0.10;99.90
3380;DHT22;1703;51.964;7.642;2022-11-20T02:53:55;0.10;99.90
3380;DHT22;1703;51.964;7.642;2022-11-20T02:56:22;0.00;99.90
3380;DHT22;1703;51.964;7.642;2022-11-20T02:58:50;-0.10;99.90
3380;DHT22;1703;51.964;7.642;2022-11-20T03:01:17;-0.10;99.90
3380;DHT22;1703;51.964;7.642;2022-11-20T03:03:44;-0.10;99.90
3380;DHT22;1703;51.964;7.642;2022-11-20T03:06:11;-0.10;99.90
3380;DHT22;1703;51.964;7.642;2022-11-20T03:08:37;-0.10;99.90
3380;DHT22;1703;51.964;7.642;2022-11-20T03:11:06;-0.10;99.90
3380;DHT22;1703;51.964;7.642;2022-11-20T03:13:33;0.00;99.90
3380;DHT22;1703;51.964;7.642;2022-11-20T03:16:07;0.00;99.90
3380;DHT22;1703;51.964;7.642;2022-11-20T03:18:34;0.00;99.90
3380;DHT22;1703;51.964;7.642;2022-11-20T03:21:01;0.00;99.90
3380;DHT22;1703;51.964;7.642;2022-11-20T03:23:29;0.00;99.90
3380;DHT22;1703;51.964;7.642;2022-11-20T03:26:06;-0.10;99.90
3380;DHT22;1703;51.964;7.642;2022-11-20T03:28:33;-0.10;99.90
3380;DHT22;1703;51.964;7.642;2022-11-20T03:31:09;-0.10;99.90
3380;DHT22;1703;51.964;7.642;2022-11-20T03:33:37;0.00;99.90
3380;DHT22;1703;51.964;7.642;2022-11-20T03:36:06;0.00;99.90
3380;DHT22;1703;51.964;7.642;2022-11-20T03:38:34;0.00;99.90
3380;DHT22;1703;51.964;7.642;2022-11-20T03:41:03;0.10;99.90
3380;DHT22;1703;51.964;7.642;2022-11-20T03:43:31;0.00;99.90
3380;DHT22;1703;51.964;7.642;2022-11-20T03:46:02;-0.10;99.90
3380;DHT22;1703;51.964;7.642;2022-11-20T03:48:30;-0.20;99.90
3380;DHT22;1703;51.964;7.642;2022-11-20T03:51:07;-0.20;99.90
3380;DHT22;1703;51.964;7.642;2022-11-20T03:53:34;-0.20;99.90
3380;DHT22;1703;51.964;7.642;2022-11-20T03:56:01;-0.20;99.90
3380;DHT22;1703;51.964;7.642;2022-11-20T03:58:28;-0.20;99.90
3380;DHT22;1703;51.964;7.642;2022-11-20T04:00:55;-0.30;99.90
3380;DHT22;1703;51.964;7.642;2022-11-20T04:03:22;-0.20;99.90
3380;DHT22;1703;51.964;7.642;2022-11-20T04:05:50;-0.10;99.90
3380;DHT22;1703;51.964;7.642;2022-11-20T04:08:17;0.00;99.90
3380;DHT22;1703;51.964;7.642;2022-11-20T04:10:44;-0.10;99.90
3380;DHT22;1703;51.964;7.642;2022-11-20T04:13:10;-0.10;99.90
3380;DHT22;1703;51.964;7.642;2022-11-20T04:15:37;-0.10;99.90
3380;DHT22;1703;51.964;7.642;2022-11-20T04:18:04;-0.10;99.90
3380;DHT22;1703;51.964;7.642;2022-11-20T04:20:31;-0.20;99.90
3380;DHT22;1703;51.964;7.642;2022-11-20T04:22:59;-0.20;99.90
3380;DHT22;1703;51.964;7.642;2022-11-20T04:25:26;-0.30;99.90
3380;DHT22;1703;51.964;7.642;2022-11-20T04:27:52;-0.30;99.90
3380;DHT22;1703;51.964;7.642;2022-11-20T04:30:19;-0.40;99.90
3380;DHT22;1703;51.964;7.642;2022-11-20T04:32:46;-0.40;99.90
3380;DHT22;1703;51.964;7.642;2022-11-20T04:35:13;-0.30;99.90
3380;DHT22;1703;51.964;7.642;2022-11-20T04:37:40;-0.30;99.90
3380;DHT22;1703;51.964;7.642;2022-11-20T04:40:09;-0.30;99.90
3380;DHT22;1703;51.964;7.642;2022-11-20T04:42:36;-0.20;99.90
3380;DHT22;1703;51.964;7.642;2022-11-20T04:45:03;-0.20;99.90
3380;DHT22;1703;51.964;7.642;2022-11-20T04:47:30;-0.30;99.90
3380;DHT22;1703;51.964;7.642;2022-11-20T04:49:56;-0.30;99.90
3380;DHT22;1703;51.964;7.642;2022-11-20T04:52:23;-0.40;99.90
3380;DHT22;1703;51.964;7.642;2022-11-20T04:54:50;-0.50;99.90
3380;DHT22;1703;51.964;7.642;2022-11-20T04:57:20;-0.50;99.90
3380;DHT22;1703;51.964;7.642;2022-11-20T04:59:47;-0.50;99.90
3380;DHT22;1703;51.964;7.642;2022-11-20T05:02:13;-0.50;99.90
3380;DHT22;1703;51.964;7.642;2022-11-20T05:04:40;-0.50;99.90
3380;DHT22;1703;51.964;7.642;2022-11-20T05:07:07;-0.40;99.90
3380;DHT22;1703;51.964;7.642;2022-11-20T05:09:34;-0.50;99.90
3380;DHT22;1703;51.964;7.642;2022-11-20T05:12:00;-0.50;99.90
3380;DHT22;1703;51.964;7.642;2022-11-20T05:14:28;-0.40;99.90
3380;DHT22;1703;51.964;7.642;2022-11-20T05:16:55;-0.50;99.90
3380;DHT22;1703;51.964;7.642;2022-11-20T05:19:22;-0.60;99.90
3380;DHT22;1703;51.964;7.642;2022-11-20T05:21:49;-0.50;99.90
3380;DHT22;1703;51.964;7.642;2022-11-20T05:24:16;-0.50;99.90
3380;DHT22;1703;51.964;7.642;2022-11-20T05:26:42;-0.50;99.90
3380;DHT22;1703;51.964;7.642;2022-11-20T05:29:10;-0.40;99.90
3380;DHT22;1703;51.964;7.642;2022-11-20T05:31:41;-0.40;99.90
3380;DHT22;1703;51.964;7.642;2022-11-20T05:34:07;-0.30;99.90
3380;DHT22;1703;51.964;7.642;2022-11-20T05:36:34;-0.30;99.90
3380;DHT22;1703;51.964;7.642;2022-11-20T05:39:01;-0.20;99.90
3380;DHT22;1703;51.964;7.642;2022-11-20T05:41:28;-0.10;99.90
3380;DHT22;1703;51.964;7.642;2022-11-20T05:43:56;-0.10;99.90
3380;DHT22;1703;51.964;7.642;2022-11-20T05:46:24;0.00;99.90
3380;DHT22;1703;51.964;7.642;2022-11-20T05:48:52;0.00;99.90
3380;DHT22;1703;51.964;7.642;2022-11-20T05:51:19;0.00;99.90
3380;DHT22;1703;51.964;7.642;2022-11-20T05:53:47;0.20;99.90
3380;DHT22;1703;51.964;7.642;2022-11-20T05:56:15;0.30;99.90
3380;DHT22;1703;51.964;7.642;2022-11-20T05:58:42;0.20;99.90
3380;DHT22;1703;51.964;7.642;2022-11-20T06:01:12;0.30;99.90
3380;DHT22;1703;51.964;7.642;2022-11-20T06:03:40;0.30;99.90
3380;DHT22;1703;51.964;7.642;2022-11-20T06:06:09;0.30;99.90
3380;DHT22;1703;51.964;7.642;2022-11-20T06:08:36;0.30;99.90
3380;DHT22;1703;51.964;7.642;2022-11-20T06:11:04;0.30;99.90
3380;DHT22;1703;51.964;7.642;2022-11-20T06:13:31;0.40;99.90
3380;DHT22;1703;51.964;7.642;2022-11-20T06:15:58;0.40;99.90
3380;DHT22;1703;51.964;7.642;2022-11-20T06:18:26;0.40;99.90
3380;DHT22;1703;51.964;7.642;2022-11-20T06:21:00;0.50;99.90
3380;DHT22;1703;51.964;7.642;2022-11-20T06:23:29;0.50;99.90
3380;DHT22;1703;51.964;7.642;2022-11-20T06:25:56;0.50;99.90
3380;DHT22;1703;51.964;7.642;2022-11-20T06:28:23;0.50;99.90
3380;DHT22;1703;51.964;7.642;2022-11-20T06:30:50;0.50;99.90
3380;DHT22;1703;51.964;7.642;2022-11-20T06:33:17;0.40;99.90
3380;DHT22;1703;51.964;7.642;2022-11-20T06:35:44;0.40;99.90
3380;DHT22;1703;51.964;7.642;2022-11-20T06:38:10;0.40;99.90
3380;DHT22;1703;51.964;7.642;2022-11-20T06:40:41;0.40;99.90
3380;DHT22;1703;51.964;7.642;2022-11-20T06:43:08;0.50;99.90
3380;DHT22;1703;51.964;7.642;2022-11-20T06:45:35;0.50;99.90
3380;DHT22;1703;51.964;7.642;2022-11-20T06:48:02;0.60;99.90
3380;DHT22;1703;51.964;7.642;2022-11-20T06:50:29;0.60;99.90
3380;DHT22;1703;51.964;7.642;2022-11-20T06:52:56;0.60;99.90
3380;DHT22;1703;51.964;7.642;2022-11-20T06:55:26;0.80;99.90
3380;DHT22;1703;51.964;7.642;2022-11-20T06:57:54;0.80;99.90
3380;DHT22;1703;51.964;7.642;2022-11-20T07:00:21;0.80;99.90
3380;DHT22;1703;51.964;7.642;2022-11-20T07:02:48;0.80;99.90
3380;DHT22;1703;51.964;7.642;2022-11-20T07:05:15;0.70;99.90
3380;DHT22;1703;51.964;7.642;2022-11-20T07:07:42;0.80;99.90
3380;DHT22;1703;51.964;7.642;2022-11-20T07:10:10;0.80;99.90
3380;DHT22;1703;51.964;7.642;2022-11-20T07:12:36;0.80;99.90
3380;DHT22;1703;51.964;7.642;2022-11-20T07:15:06;0.90;99.90
3380;DHT22;1703;51.964;7.642;2022-11-20T07:17:33;1.00;99.90
3380;DHT22;1703;51.964;7.642;2022-11-20T07:19:59;1.00;99.90
3380;DHT22;1703;51.964;7.642;2022-11-20T07:22:26;1.00;99.90
3380;DHT22;1703;51.964;7.642;2022-11-20T07:24:53;1.00;99.90
3380;DHT22;1703;51.964;7.642;2022-11-20T07:27:20;1.00;99.90
3380;DHT22;1703;51.964;7.642;2022-11-20T07:29:47;1.00;99.90
3380;DHT22;1703;51.964;7.642;2022-11-20T07:32:15;1.00;99.90
3380;DHT22;1703;51.964;7.642;2022-11-20T07:34:41;1.00;99.90
3380;DHT22;1703;51.964;7.642;2022-11-20T07:37:08;0.90;99.90
3380;DHT22;1703;51.964;7.642;2022-11-20T07:39:35;0.90;99.90
3380;DHT22;1703;51.964;7.642;2022-11-20T07:42:02;0.90;99.90
3380;DHT22;1703;51.964;7.642;2022-11-20T07:44:29;1.00;99.90
3380;DHT22;1703;51.964;7.642;2022-11-20T07:46:55;1.00;99.90
3380;DHT22;1703;51.964;7.642;2022-11-20T07:49:23;1.00;99.90
3380;DHT22;1703;51.964;7.642;2022-11-20T07:51:50;1.10;99.90
3380;DHT22;1703;51.964;7.642;2022-11-20T07:54:18;1.10;99.90
3380;DHT22;1703;51.964;7.642;2022-11-20T07:56:45;1.00;99.90
3380;DHT22;1703;51.964;7.642;2022-11-20T07:59:12;1.10;99.90
3380;DHT22;1703;51.964;7.642;2022-11-20T08:01:39;1.10;99.90
3380;DHT22;1703;51.964;7.642;2022-11-20T08:04:06;1.20;99.90
3380;DHT22;1703;51.964;7.642;2022-11-20T08:06:35;1.20;99.90
3380;DHT22;1703;51.964;7.642;2022-11-20T08:09:03;1.20;99.90
3380;DHT22;1703;51.964;7.642;2022-11-20T08:11:29;1.30;99.90
3380;DHT22;1703;51.964;7.642;2022-11-20T08:14:14;1.40;99.90
3380;DHT22;1703;51.964;7.642;2022-11-20T08:16:42;1.40;99.90
3380;DHT22;1703;51.964;7.642;2022-11-20T08:19:10;1.50;99.90
3380;DHT22;1703;51.964;7.642;2022-11-20T08:21:38;1.50;99.90
3380;DHT22;1703;51.964;7.642;2022-11-20T08:24:06;1.60;99.90
3380;DHT22;1703;51.964;7.642;2022-11-20T08:26:33;1.60;99.90
3380;DHT22;1703;51.964;7.642;2022-11-20T08:29:01;1.60;99.90
3380;DHT22;1703;51.964;7.642;2022-11-20T08:31:28;1.70;99.90
3380;DHT22;1703;51.964;7.642;2022-11-20T08:33:55;1.80;99.90
3380;DHT22;1703;51.964;7.642;2022-11-20T08:36:22;1.80;99.90
3380;DHT22;1703;51.964;7.642;2022-11-20T08:38:52;1.80;99.90
3380;DHT22;1703;51.964;7.642;2022-11-20T08:41:19;1.90;99.90
3380;DHT22;1703;51.964;7.642;2022-11-20T08:43:55;2.00;99.90
3380;DHT22;1703;51.964;7.642;2022-11-20T08:46:23;2.00;99.90
3380;DHT22;1703;51.964;7.642;2022-11-20T08:48:50;2.10;99.90
3380;DHT22;1703;51.964;7.642;2022-11-20T08:51:18;2.20;99.90
3380;DHT22;1703;51.964;7.642;2022-11-20T08:53:45;2.10;99.90
3380;DHT22;1703;51.964;7.642;2022-11-20T08:56:15;2.10;99.90
3380;DHT22;1703;51.964;7.642;2022-11-20T08:58:42;2.20;99.90
3380;DHT22;1703;51.964;7.642;2022-11-20T09:01:09;2.20;99.90
3380;DHT22;1703;51.964;7.642;2022-11-20T09:03:35;2.20;99.90
3380;DHT22;1703;51.964;7.642;2022-11-20T09:06:04;2.20;99.90
3380;DHT22;1703;51.964;7.642;2022-11-20T09:08:32;2.20;99.90
3380;DHT22;1703;51.964;7.642;2022-11-20T09:10:59;2.20;99.90
3380;DHT22;1703;51.964;7.642;2022-11-20T09:13:28;2.20;99.90
3380;DHT22;1703;51.964;7.642;2022-11-20T09:15:56;2.30;99.90
3380;DHT22;1703;51.964;7.642;2022-11-20T09:18:24;2.30;99.90
3380;DHT22;1703;51.964;7.642;2022-11-20T09:20:51;2.30;99.90
3380;DHT22;1703;51.964;7.642;2022-11-20T09:23:17;2.40;99.90
3380;DHT22;1703;51.964;7.642;2022-11-20T09:25:44;2.40;99.90
3380;DHT22;1703;51.964;7.642;2022-11-20T09:28:11;2.50;99.90
3380;DHT22;1703;51.964;7.642;2022-11-20T09:30:39;2.50;99.90
3380;DHT22;1703;51.964;7.642;2022-11-20T09:33:06;2.50;99.90
3380;DHT22;1703;51.964;7.642;2022-11-20T09:35:33;2.50;99.90
3380;DHT22;1703;51.964;7.642;2022-11-20T09:38:04;2.60;99.90
3380;DHT22;1703;51.964;7.642;2022-11-20T09:40:31;2.50;99.90
3380;DHT22;1703;51.964;7.642;2022-11-20T09:43:03;2.50;99.90
3380;DHT22;1703;51.964;7.642;2022-11-20T09:45:54;2.50;99.90
3380;DHT22;1703;51.964;7.642;2022-11-20T09:48:42;2.50;99.90
3380;DHT22;1703;51.964;7.642;2022-11-20T09:51:19;2.50;99.90
3380;DHT22;1703;51.964;7.642;2022-11-20T09:53:57;2.50;99.90
3380;DHT22;1703;51.964;7.642;2022-11-20T09:56:28;2.60;99.90
3380;DHT22;1703;51.964;7.642;2022-11-20T09:58:58;2.70;99.90
3380;DHT22;1703;51.964;7.642;2022-11-20T10:01:32;2.80;99.90
3380;DHT22;1703;51.964;7.642;2022-11-20T10:04:02;2.80;99.90
3380;DHT22;1703;51.964;7.642;2022-11-20T10:06:31;2.90;99.90
3380;DHT22;1703;51.964;7.642;2022-11-20T10:09:06;3.00;99.90
3380;DHT22;1703;51.964;7.642;2022-11-20T10:11:45;3.00;99.90
3380;DHT22;1703;51.964;7.642;2022-11-20T10:14:23;3.10;99.90
3380;DHT22;1703;51.964;7.642;2022-11-20T10:17:02;3.20;99.90
3380;DHT22;1703;51.964;7.642;2022-11-20T10:19:47;3.20;99.90
3380;DHT22;1703;51.964;7.642;2022-11-20T10:22:27;3.30;99.90
3380;DHT22;1703;51.964;7.642;2022-11-20T10:24:57;3.30;99.90
3380;DHT22;1703;51.964;7.642;2022-11-20T10:27:48;3.40;99.90
3380;DHT22;1703;51.964;7.642;2022-11-20T10:30:20;3.40;99.90
3380;DHT22;1703;51.964;7.642;2022-11-20T10:32:54;3.40;99.90
3380;DHT22;1703;51.964;7.642;2022-11-20T10:35:24;3.40;99.90
3380;DHT22;1703;51.964;7.642;2022-11-20T10:37:56;3.50;99.90
3380;DHT22;1703;51.964;7.642;2022-11-20T10:40:31;3.60;99.90
3380;DHT22;1703;51.964;7.642;2022-11-20T10:43:02;3.60;99.90
3380;DHT22;1703;51.964;7.642;2022-11-20T10:45:43;3.70;99.90
3380;DHT22;1703;51.964;7.642;2022-11-20T10:48:16;3.80;99.90
3380;DHT22;1703;51.964;7.642;2022-11-20T10:50:53;3.90;99.90
3380;DHT22;1703;51.964;7.642;2022-11-20T10:53:40;3.90;99.90
3380;DHT22;1703;51.964;7.642;2022-11-20T10:56:15;4.00;99.90
3380;DHT22;1703;51.964;7.642;2022-11-20T10:58:47;4.00;99.90
3380;DHT22;1703;51.964;7.642;2022-11-20T11:01:18;4.00;99.90
3380;DHT22;1703;51.964;7.642;2022-11-20T11:03:48;4.10;99.90
3380;DHT22;1703;51.964;7.642;2022-11-20T11:06:21;4.20;99.90
3380;DHT22;1703;51.964;7.642;2022-11-20T11:08:50;4.20;99.90
3380;DHT22;1703;51.964;7.642;2022-11-20T11:11:21;4.20;99.90
3380;DHT22;1703;51.964;7.642;2022-11-20T11:13:49;4.20;99.90
3380;DHT22;1703;51.964;7.642;2022-11-20T11:16:20;4.30;99.90
3380;DHT22;1703;51.964;7.642;2022-11-20T11:18:49;4.30;99.90
3380;DHT22;1703;51.964;7.642;2022-11-20T11:21:23;4.30;99.90
3380;DHT22;1703;51.964;7.642;2022-11-20T11:23:59;4.30;99.90
3380;DHT22;1703;51.964;7.642;2022-11-20T11:26:26;4.40;99.90
3380;DHT22;1703;51.964;7.642;2022-11-20T11:28:55;4.50;99.90
3380;DHT22;1703;51.964;7.642;2022-11-20T11:31:23;4.60;99.90
3380;DHT22;1703;51.964;7.642;2022-11-20T11:33:51;4.60;99.90
3380;DHT22;1703;51.964;7.642;2022-11-20T11:36:21;4.80;99.90
3380;DHT22;1703;51.964;7.642;2022-11-20T11:38:52;4.90;99.90
3380;DHT22;1703;51.964;7.642;2022-11-20T11:41:22;5.00;99.90
3380;DHT22;1703;51.964;7.642;2022-11-20T11:43:54;5.10;99.90
3380;DHT22;1703;51.964;7.642;2022-11-20T11:46:43;5.10;99.90
3380;DHT22;1703;51.964;7.642;2022-11-20T11:49:17;4.90;99.90
3380;DHT22;1703;51.964;7.642;2022-11-20T11:51:56;5.10;99.90
3380;DHT22;1703;51.964;7.642;2022-11-20T11:54:28;5.10;99.90
3380;DHT22;1703;51.964;7.642;2022-11-20T11:57:00;5.30;99.90
3380;DHT22;1703;51.964;7.642;2022-11-20T11:59:36;5.40;99.90
3380;DHT22;1703;51.964;7.642;2022-11-20T12:02:19;5.50;99.90
3380;DHT22;1703;51.964;7.642;2022-11-20T12:04:54;5.70;99.90
3380;DHT22;1703;51.964;7.642;2022-11-20T12:07:33;5.70;99.90
3380;DHT22;1703;51.964;7.642;2022-11-20T12:10:03;5.80;99.90
3380;DHT22;1703;51.964;7.642;2022-11-20T12:12:34;5.80;99.90
3380;DHT22;1703;51.964;7.642;2022-11-20T12:15:06;5.80;99.90
3380;DHT22;1703;51.964;7.642;2022-11-20T12:17:34;5.90;99.90
3380;DHT22;1703;51.964;7.642;2022-11-20T12:20:05;5.90;99.90
3380;DHT22;1703;51.964;7.642;2022-11-20T12:22:40;5.90;99.90
3380;DHT22;1703;51.964;7.642;2022-11-20T12:25:14;5.80;99.90
3380;DHT22;1703;51.964;7.642;2022-11-20T12:27:51;5.80;99.90
3380;DHT22;1703;51.964;7.642;2022-11-20T12:30:21;5.80;99.90
3380;DHT22;1703;51.964;7.642;2022-11-20T12:33:11;5.80;99.90
3380;DHT22;1703;51.964;7.642;2022-11-20T12:35:52;5.70;99.90
3380;DHT22;1703;51.964;7.642;2022-11-20T12:41:33;5.60;99.90
3380;DHT22;1703;51.964;7.642;2022-11-20T12:44:33;5.60;99.90
3380;DHT22;1703;51.964;7.642;2022-11-20T12:47:27;5.60;99.90
3380;DHT22;1703;51.964;7.642;2022-11-20T12:50:04;5.70;99.90
3380;DHT22;1703;51.964;7.642;2022-11-20T12:52:47;5.60;99.90
3380;DHT22;1703;51.964;7.642;2022-11-20T12:55:32;5.60;99.90
3380;DHT22;1703;51.964;7.642;2022-11-20T12:58:10;5.60;99.90
3380;DHT22;1703;51.964;7.642;2022-11-20T13:00:47;5.50;99.90
3380;DHT22;1703;51.964;7.642;2022-11-20T13:03:37;5.60;99.90
3380;DHT22;1703;51.964;7.642;2022-11-20T13:06:13;5.50;99.90
3380;DHT22;1703;51.964;7.642;2022-11-20T13:08:43;5.40;99.90
3380;DHT22;1703;51.964;7.642;2022-11-20T13:11:16;5.30;99.90
3380;DHT22;1703;51.964;7.642;2022-11-20T13:14:07;5.20;99.90
3380;DHT22;1703;51.964;7.642;2022-11-20T13:16:40;5.10;99.90
3380;DHT22;1703;51.964;7.642;2022-11-20T13:19:12;5.20;99.90
3380;DHT22;1703;51.964;7.642;2022-11-20T13:21:41;5.30;99.90
3380;DHT22;1703;51.964;7.642;2022-11-20T13:24:23;5.50;99.90
3380;DHT22;1703;51.964;7.642;2022-11-20T13:27:16;5.60;99.90
3380;DHT22;1703;51.964;7.642;2022-11-20T13:29:46;5.70;99.90
3380;DHT22;1703;51.964;7.642;2022-11-20T13:32:15;5.70;99.90
3380;DHT22;1703;51.964;7.642;2022-11-20T13:34:52;5.80;99.90
3380;DHT22;1703;51.964;7.642;2022-11-20T13:37:27;5.60;99.90
3380;DHT22;1703;51.964;7.642;2022-11-20T13:40:10;5.60;99.90
3380;DHT22;1703;51.964;7.642;2022-11-20T13:42:39;5.60;99.90
3380;DHT22;1703;51.964;7.642;2022-11-20T13:45:11;5.50;99.90
3380;DHT22;1703;51.964;7.642;2022-11-20T13:47:48;5.50;99.90
3380;DHT22;1703;51.964;7.642;2022-11-20T13:50:15;5.50;99.90
3380;DHT22;1703;51.964;7.642;2022-11-20T13:52:50;5.50;99.90
3380;DHT22;1703;51.964;7.642;2022-11-20T13:55:28;5.40;99.90
3380;DHT22;1703;51.964;7.642;2022-11-20T13:58:12;5.30;99.90
3380;DHT22;1703;51.964;7.642;2022-11-20T14:00:47;5.30;99.90
3380;DHT22;1703;51.964;7.642;2022-11-20T14:03:19;5.30;99.90
3380;DHT22;1703;51.964;7.642;2022-11-20T14:05:50;5.30;99.90
3380;DHT22;1703;51.964;7.642;2022-11-20T14:08:25;5.40;99.90
3380;DHT22;1703;51.964;7.642;2022-11-20T14:11:04;5.40;99.90
3380;DHT22;1703;51.964;7.642;2022-11-20T14:13:31;5.30;99.90
3380;DHT22;1703;51.964;7.642;2022-11-20T14:15:58;5.40;99.90
3380;DHT22;1703;51.964;7.642;2022-11-20T14:18:26;5.30;99.90
3380;DHT22;1703;51.964;7.642;2022-11-20T14:20:53;5.30;99.90
3380;DHT22;1703;51.964;7.642;2022-11-20T14:23:24;5.30;99.90
3380;DHT22;1703;51.964;7.642;2022-11-20T14:25:51;5.40;99.90
3380;DHT22;1703;51.964;7.642;2022-11-20T14:28:25;5.30;99.90
3380;DHT22;1703;51.964;7.642;2022-11-20T14:30:54;5.20;99.90
3380;DHT22;1703;51.964;7.642;2022-11-20T14:33:21;5.20;99.90
3380;DHT22;1703;51.964;7.642;2022-11-20T14:35:52;5.10;99.90
3380;DHT22;1703;51.964;7.642;2022-11-20T14:38:22;5.10;99.90
3380;DHT22;1703;51.964;7.642;2022-11-20T14:40:50;5.20;99.90
3380;DHT22;1703;51.964;7.642;2022-11-20T14:43:21;5.20;99.90
3380;DHT22;1703;51.964;7.642;2022-11-20T14:45:55;5.20;99.90
3380;DHT22;1703;51.964;7.642;2022-11-20T14:48:24;5.20;99.90
3380;DHT22;1703;51.964;7.642;2022-11-20T14:50:53;5.20;99.90
3380;DHT22;1703;51.964;7.642;2022-11-20T14:53:22;5.20;99.90
3380;DHT22;1703;51.964;7.642;2022-11-20T14:55:55;5.20;99.90
3380;DHT22;1703;51.964;7.642;2022-11-20T14:58:25;5.10;99.90
3380;DHT22;1703;51.964;7.642;2022-11-20T15:00:57;5.10;99.90
3380;DHT22;1703;51.964;7.642;2022-11-20T15:03:32;5.20;99.90
3380;DHT22;1703;51.964;7.642;2022-11-20T15:05:59;5.20;99.90
3380;DHT22;1703;51.964;7.642;2022-11-20T15:08:26;5.20;99.90
3380;DHT22;1703;51.964;7.642;2022-11-20T15:10:54;5.20;99.90
3380;DHT22;1703;51.964;7.642;2022-11-20T15:13:29;5.20;99.90
3380;DHT22;1703;51.964;7.642;2022-11-20T15:15:57;5.20;99.90
3380;DHT22;1703;51.964;7.642;2022-11-20T15:18:28;5.20;99.90
3380;DHT22;1703;51.964;7.642;2022-11-20T15:20:56;5.20;99.90
3380;DHT22;1703;51.964;7.642;2022-11-20T15:23:26;5.20;99.90
3380;DHT22;1703;51.964;7.642;2022-11-20T15:25:53;5.20;99.90
3380;DHT22;1703;51.964;7.642;2022-11-20T15:28:23;5.10;99.90
3380;DHT22;1703;51.964;7.642;2022-11-20T15:30:52;5.10;99.90
3380;DHT22;1703;51.964;7.642;2022-11-20T15:33:21;5.20;99.90
3380;DHT22;1703;51.964;7.642;2022-11-20T15:35:48;5.20;99.90
3380;DHT22;1703;51.964;7.642;2022-11-20T15:38:15;5.10;99.90
3380;DHT22;1703;51.964;7.642;2022-11-20T15:40:42;5.10;99.90
3380;DHT22;1703;51.964;7.642;2022-11-20T15:43:09;5.10;99.90
3380;DHT22;1703;51.964;7.642;2022-11-20T15:45:38;5.20;99.90
3380;DHT22;1703;51.964;7.642;2022-11-20T15:48:10;5.10;99.90
3380;DHT22;1703;51.964;7.642;2022-11-20T15:50:39;5.00;99.90
3380;DHT22;1703;51.964;7.642;2022-11-20T15:53:09;5.00;99.90
3380;DHT22;1703;51.964;7.642;2022-11-20T15:55:36;4.90;99.90
3380;DHT22;1703;51.964;7.642;2022-11-20T15:58:04;4.90;99.90
3380;DHT22;1703;51.964;7.642;2022-11-20T16:00:31;5.00;99.90
3380;DHT22;1703;51.964;7.642;2022-11-20T16:02:58;5.00;99.90
3380;DHT22;1703;51.964;7.642;2022-11-20T16:05:29;5.10;99.90
3380;DHT22;1703;51.964;7.642;2022-11-20T16:07:56;5.10;99.90
3380;DHT22;1703;51.964;7.642;2022-11-20T16:10:23;4.90;99.90
3380;DHT22;1703;51.964;7.642;2022-11-20T16:12:50;4.90;99.90
3380;DHT22;1703;51.964;7.642;2022-11-20T16:15:34;5.00;99.90
3380;DHT22;1703;51.964;7.642;2022-11-20T16:18:15;5.10;99.90
3380;DHT22;1703;51.964;7.642;2022-11-20T16:20:45;5.10;99.90
3380;DHT22;1703;51.964;7.642;2022-11-20T16:23:12;5.00;99.90
3380;DHT22;1703;51.964;7.642;2022-11-20T16:25:41;5.00;99.90
3380;DHT22;1703;51.964;7.642;2022-11-20T16:28:07;5.00;99.90
3380;DHT22;1703;51.964;7.642;2022-11-20T16:30:34;5.00;99.90
3380;DHT22;1703;51.964;7.642;2022-11-20T16:33:02;4.90;99.90
3380;DHT22;1703;51.964;7.642;2022-11-20T16:35:29;4.90;99.90